aviador You're here:

KAIB Decoded Metar

in
Report Time2017-11-23 22:55:00
UTC Time2017-11-23 22:19:18
Flight Rules vfr VFR
Wind340° at 03 kt
W.Decomp.*RWY 29: 1.9 kt HW 2.3 kt RCW
RWY 05: 1.0 kt HW 2.8 kt LCW
W.Rank340° ranks 13
Current wind is below 340° avg. (5.5)
Visibility9999 m
Phenomena:N/A
Clouds:N/A
Expected CloudBase > 6,800 ft AGL from Temp-Dew spread
CeilingNone
Temp17°C
Dew Point00°C (32% RH)
AAT14.0°C
QNH1026 hPa
Raw Report
KAIB 232255Z AUTO 34003KT 10SM CLR 17/00 A3029 RMK AO2=

Extra information for KAIB:More info

Social comments